Dwight, KS (66849)

8:31 AM CDT on August 30, 2016 (GMT -0500)
I-70 Exit 300 | | Change Station

Elev 1125 ft 39.03 °N, 96.78 °W | Updated 11 minutes ago

Mostly Cloudy
Mostly Cloudy
73.6 °F
Feels Like 73 °F
N
0.0
Wind Variable Wind from NNE

Today
High -- | Low -- °F
--% Chance of Precip.
Yesterday
High -- | Low -- °F
Precip. -- in
Pressure 30.16 in
Visibility 10.0 miles
Clouds Mostly Cloudy 14000 ft
Heat Index 73 °F
Dew Point 68 °F
Humidity 84%
Rainfall 0.00 in
Snow Depth Not available.
6:53 AM 7:58 PM
Waning Crescent, 4% visible
METAR KFRI 301258Z AUTO 00000KT 10SM BKN140 21/21 A3018 RMK AO2 LTG DSNT W SLP211 T02110211
Pressure 30.16 in
Visibility 10.0 miles
Clouds Mostly Cloudy 14000 ft
Heat Index 73 °F
Dew Point 68 °F
Humidity 84%
Rainfall 0.00 in
Snow Depth Not available.
6:53 AM 7:58 PM
Waning Crescent, 4% visible
METAR KFRI 301258Z AUTO 00000KT 10SM BKN140 21/21 A3018 RMK AO2 LTG DSNT W SLP211 T02110211

10-Day Weather Forecast

Almanac

Astronomy

Aug. 30, 2016 Rise Set
Actual Time
Civil Twilight
Nautical Twilight
Astronomical Twilight
Moon
Length of Visible Light
Length of Day
Tomorrow will be .
, % of the Moon is Illuminated

Today's Extremes

State Highs State Lows

Community

WunderPhotos

Upload Photos

1,935,831 photos uploaded!

WunderBlog® & News

Nearby

Air Quality

  Air Quality AQ Index Pollutant
Not available.

Snow Depth

Station Depth Elevation

Earthquake Activity

City Distance Mag. Time & Date
Minimum magnitude displayed is 2.5.

Coastal Water Temperatures

Place Temperature

Stations

Nearby Weather Stations

Station Location Temp. Windchill Dew Point Humidity Wind Precip. Elev Updated Type
                   

Watches & Warnings

There are currently no watches in effect.